sensor_id;sensor_type;location;lat;lon;timestamp;P1;durP1;ratioP1;P2;durP2;ratioP2
23714;SDS011;12036;50.858;4.472;2023-09-18T00:02:25;8.90;;;5.45;;
23714;SDS011;12036;50.858;4.472;2023-09-18T00:04:51;7.88;;;5.40;;
23714;SDS011;12036;50.858;4.472;2023-09-18T00:07:17;13.82;;;6.43;;
23714;SDS011;12036;50.858;4.472;2023-09-18T00:09:43;8.77;;;6.30;;
23714;SDS011;12036;50.858;4.472;2023-09-18T00:12:08;8.90;;;5.70;;
23714;SDS011;12036;50.858;4.472;2023-09-18T00:14:35;8.30;;;5.97;;
23714;SDS011;12036;50.858;4.472;2023-09-18T00:17:01;8.32;;;5.95;;
23714;SDS011;12036;50.858;4.472;2023-09-18T00:19:27;6.78;;;5.40;;
23714;SDS011;12036;50.858;4.472;2023-09-18T00:21:53;11.43;;;6.15;;
23714;SDS011;12036;50.858;4.472;2023-09-18T00:24:19;7.80;;;6.53;;
23714;SDS011;12036;50.858;4.472;2023-09-18T00:26:46;6.10;;;5.00;;
23714;SDS011;12036;50.858;4.472;2023-09-18T00:29:13;8.40;;;6.45;;
23714;SDS011;12036;50.858;4.472;2023-09-18T00:31:39;9.20;;;6.90;;
23714;SDS011;12036;50.858;4.472;2023-09-18T00:34:04;9.68;;;6.32;;
23714;SDS011;12036;50.858;4.472;2023-09-18T00:36:30;8.95;;;6.95;;
23714;SDS011;12036;50.858;4.472;2023-09-18T00:38:56;8.98;;;6.15;;
23714;SDS011;12036;50.858;4.472;2023-09-18T00:41:21;9.32;;;6.68;;
23714;SDS011;12036;50.858;4.472;2023-09-18T00:43:47;11.25;;;6.22;;
23714;SDS011;12036;50.858;4.472;2023-09-18T00:46:12;13.50;;;6.72;;
23714;SDS011;12036;50.858;4.472;2023-09-18T00:48:38;11.55;;;6.32;;
23714;SDS011;12036;50.858;4.472;2023-09-18T00:51:05;7.65;;;6.20;;
23714;SDS011;12036;50.858;4.472;2023-09-18T00:53:33;7.63;;;6.30;;
23714;SDS011;12036;50.858;4.472;2023-09-18T00:55:59;9.68;;;6.68;;
23714;SDS011;12036;50.858;4.472;2023-09-18T00:58:26;8.80;;;6.70;;
23714;SDS011;12036;50.858;4.472;2023-09-18T01:00:52;14.13;;;8.68;;
23714;SDS011;12036;50.858;4.472;2023-09-18T01:03:19;10.57;;;6.07;;
23714;SDS011;12036;50.858;4.472;2023-09-18T01:05:46;13.10;;;6.57;;
23714;SDS011;12036;50.858;4.472;2023-09-18T01:08:11;10.93;;;6.50;;
23714;SDS011;12036;50.858;4.472;2023-09-18T01:10:40;10.63;;;6.28;;
23714;SDS011;12036;50.858;4.472;2023-09-18T01:13:30;12.98;;;6.70;;
23714;SDS011;12036;50.858;4.472;2023-09-18T01:16:07;9.50;;;7.32;;
23714;SDS011;12036;50.858;4.472;2023-09-18T01:18:36;13.68;;;6.45;;
23714;SDS011;12036;50.858;4.472;2023-09-18T01:21:02;8.80;;;6.30;;
23714;SDS011;12036;50.858;4.472;2023-09-18T01:23:27;11.68;;;6.25;;
23714;SDS011;12036;50.858;4.472;2023-09-18T01:25:53;9.18;;;6.43;;
23714;SDS011;12036;50.858;4.472;2023-09-18T01:28:19;10.43;;;6.10;;
23714;SDS011;12036;50.858;4.472;2023-09-18T01:30:44;13.45;;;6.90;;
23714;SDS011;12036;50.858;4.472;2023-09-18T01:33:10;10.30;;;6.15;;
23714;SDS011;12036;50.858;4.472;2023-09-18T01:35:36;8.85;;;6.30;;
23714;SDS011;12036;50.858;4.472;2023-09-18T01:38:03;12.55;;;6.97;;
23714;SDS011;12036;50.858;4.472;2023-09-18T01:40:29;10.23;;;6.75;;
23714;SDS011;12036;50.858;4.472;2023-09-18T01:42:56;11.52;;;6.47;;
23714;SDS011;12036;50.858;4.472;2023-09-18T01:45:22;10.95;;;6.80;;
23714;SDS011;12036;50.858;4.472;2023-09-18T01:47:47;7.65;;;5.57;;
23714;SDS011;12036;50.858;4.472;2023-09-18T01:50:13;13.30;;;7.70;;
23714;SDS011;12036;50.858;4.472;2023-09-18T01:52:39;11.80;;;6.20;;
23714;SDS011;12036;50.858;4.472;2023-09-18T01:55:04;9.27;;;6.20;;
23714;SDS011;12036;50.858;4.472;2023-09-18T01:57:31;9.10;;;6.05;;
23714;SDS011;12036;50.858;4.472;2023-09-18T01:59:57;8.65;;;6.03;;
23714;SDS011;12036;50.858;4.472;2023-09-18T02:02:22;11.30;;;6.25;;
23714;SDS011;12036;50.858;4.472;2023-09-18T02:04:48;13.63;;;6.60;;
23714;SDS011;12036;50.858;4.472;2023-09-18T02:07:14;11.00;;;5.60;;
23714;SDS011;12036;50.858;4.472;2023-09-18T02:09:40;10.05;;;6.15;;
23714;SDS011;12036;50.858;4.472;2023-09-18T02:12:06;7.10;;;5.50;;
23714;SDS011;12036;50.858;4.472;2023-09-18T02:14:32;7.72;;;5.90;;
23714;SDS011;12036;50.858;4.472;2023-09-18T02:16:59;9.00;;;6.43;;
23714;SDS011;12036;50.858;4.472;2023-09-18T02:19:24;9.73;;;6.70;;
23714;SDS011;12036;50.858;4.472;2023-09-18T02:21:51;9.15;;;5.97;;
23714;SDS011;12036;50.858;4.472;2023-09-18T02:24:17;8.93;;;6.13;;
23714;SDS011;12036;50.858;4.472;2023-09-18T02:26:43;13.57;;;6.30;;
23714;SDS011;12036;50.858;4.472;2023-09-18T02:29:10;10.23;;;6.70;;
23714;SDS011;12036;50.858;4.472;2023-09-18T02:31:36;10.88;;;6.53;;
23714;SDS011;12036;50.858;4.472;2023-09-18T02:34:02;9.48;;;6.05;;
23714;SDS011;12036;50.858;4.472;2023-09-18T02:36:28;10.05;;;6.82;;
23714;SDS011;12036;50.858;4.472;2023-09-18T02:38:53;8.38;;;6.00;;
23714;SDS011;12036;50.858;4.472;2023-09-18T02:41:20;12.95;;;5.80;;
23714;SDS011;12036;50.858;4.472;2023-09-18T02:43:45;8.68;;;5.78;;
23714;SDS011;12036;50.858;4.472;2023-09-18T02:46:11;8.18;;;5.80;;
23714;SDS011;12036;50.858;4.472;2023-09-18T02:48:37;10.60;;;5.88;;
23714;SDS011;12036;50.858;4.472;2023-09-18T02:51:02;7.18;;;5.07;;
23714;SDS011;12036;50.858;4.472;2023-09-18T02:53:28;8.95;;;6.00;;
23714;SDS011;12036;50.858;4.472;2023-09-18T02:55:55;9.50;;;5.53;;
23714;SDS011;12036;50.858;4.472;2023-09-18T02:58:22;8.73;;;5.13;;
23714;SDS011;12036;50.858;4.472;2023-09-18T03:00:50;8.63;;;4.28;;
23714;SDS011;12036;50.858;4.472;2023-09-18T03:03:17;7.50;;;4.20;;
23714;SDS011;12036;50.858;4.472;2023-09-18T03:05:43;5.32;;;3.78;;
23714;SDS011;12036;50.858;4.472;2023-09-18T03:08:09;6.05;;;4.05;;
23714;SDS011;12036;50.858;4.472;2023-09-18T03:10:37;9.48;;;4.28;;
23714;SDS011;12036;50.858;4.472;2023-09-18T03:13:05;9.80;;;3.63;;
23714;SDS011;12036;50.858;4.472;2023-09-18T03:15:31;4.93;;;3.67;;
23714;SDS011;12036;50.858;4.472;2023-09-18T03:17:57;7.82;;;3.95;;
23714;SDS011;12036;50.858;4.472;2023-09-18T03:20:24;5.78;;;3.53;;
23714;SDS011;12036;50.858;4.472;2023-09-18T03:22:51;4.93;;;3.58;;
23714;SDS011;12036;50.858;4.472;2023-09-18T03:25:17;6.95;;;3.33;;
23714;SDS011;12036;50.858;4.472;2023-09-18T03:27:43;5.10;;;3.28;;
23714;SDS011;12036;50.858;4.472;2023-09-18T03:30:09;8.63;;;3.85;;
23714;SDS011;12036;50.858;4.472;2023-09-18T03:32:37;11.15;;;3.83;;
23714;SDS011;12036;50.858;4.472;2023-09-18T03:35:03;9.30;;;3.88;;
23714;SDS011;12036;50.858;4.472;2023-09-18T03:37:29;7.82;;;4.30;;
23714;SDS011;12036;50.858;4.472;2023-09-18T03:39:55;5.45;;;3.88;;
23714;SDS011;12036;50.858;4.472;2023-09-18T03:42:21;6.32;;;3.80;;
23714;SDS011;12036;50.858;4.472;2023-09-18T03:44:46;8.65;;;4.30;;
23714;SDS011;12036;50.858;4.472;2023-09-18T03:47:12;7.45;;;3.80;;
23714;SDS011;12036;50.858;4.472;2023-09-18T03:49:37;6.78;;;3.50;;
23714;SDS011;12036;50.858;4.472;2023-09-18T03:52:03;4.95;;;3.53;;
23714;SDS011;12036;50.858;4.472;2023-09-18T03:54:29;3.65;;;2.80;;
23714;SDS011;12036;50.858;4.472;2023-09-18T03:56:54;3.63;;;2.67;;
23714;SDS011;12036;50.858;4.472;2023-09-18T03:59:20;4.93;;;2.58;;
23714;SDS011;12036;50.858;4.472;2023-09-18T04:01:46;4.60;;;2.70;;
23714;SDS011;12036;50.858;4.472;2023-09-18T04:04:11;4.40;;;2.65;;
23714;SDS011;12036;50.858;4.472;2023-09-18T04:06:40;6.03;;;2.90;;
23714;SDS011;12036;50.858;4.472;2023-09-18T04:09:07;5.97;;;2.42;;
23714;SDS011;12036;50.858;4.472;2023-09-18T04:11:33;3.85;;;2.65;;
23714;SDS011;12036;50.858;4.472;2023-09-18T04:14:00;4.82;;;2.38;;
23714;SDS011;12036;50.858;4.472;2023-09-18T04:16:26;4.28;;;2.47;;
23714;SDS011;12036;50.858;4.472;2023-09-18T04:19:03;5.07;;;2.45;;
23714;SDS011;12036;50.858;4.472;2023-09-18T04:21:29;6.47;;;2.67;;
23714;SDS011;12036;50.858;4.472;2023-09-18T04:23:55;6.10;;;2.20;;
23714;SDS011;12036;50.858;4.472;2023-09-18T04:26:25;5.63;;;2.53;;
23714;SDS011;12036;50.858;4.472;2023-09-18T04:28:58;4.93;;;2.17;;
23714;SDS011;12036;50.858;4.472;2023-09-18T04:31:24;3.03;;;1.88;;
23714;SDS011;12036;50.858;4.472;2023-09-18T04:33:50;3.25;;;1.90;;
23714;SDS011;12036;50.858;4.472;2023-09-18T04:36:16;3.50;;;1.83;;
23714;SDS011;12036;50.858;4.472;2023-09-18T04:38:41;3.85;;;1.50;;
23714;SDS011;12036;50.858;4.472;2023-09-18T04:41:07;3.15;;;1.77;;
23714;SDS011;12036;50.858;4.472;2023-09-18T04:43:34;4.72;;;1.60;;
23714;SDS011;12036;50.858;4.472;2023-09-18T04:46:00;4.13;;;1.95;;
23714;SDS011;12036;50.858;4.472;2023-09-18T04:48:28;3.75;;;1.63;;
23714;SDS011;12036;50.858;4.472;2023-09-18T04:50:54;2.88;;;1.45;;
23714;SDS011;12036;50.858;4.472;2023-09-18T04:53:20;1.92;;;1.38;;
23714;SDS011;12036;50.858;4.472;2023-09-18T04:55:46;2.20;;;1.45;;
23714;SDS011;12036;50.858;4.472;2023-09-18T04:58:14;4.85;;;1.60;;
23714;SDS011;12036;50.858;4.472;2023-09-18T05:00:41;1.90;;;1.40;;
23714;SDS011;12036;50.858;4.472;2023-09-18T05:03:06;4.03;;;1.63;;
23714;SDS011;12036;50.858;4.472;2023-09-18T05:05:33;5.30;;;1.30;;
23714;SDS011;12036;50.858;4.472;2023-09-18T05:08:00;6.05;;;1.65;;
23714;SDS011;12036;50.858;4.472;2023-09-18T05:10:28;2.17;;;1.27;;
23714;SDS011;12036;50.858;4.472;2023-09-18T05:12:54;2.33;;;1.27;;
23714;SDS011;12036;50.858;4.472;2023-09-18T05:15:23;4.93;;;1.20;;
23714;SDS011;12036;50.858;4.472;2023-09-18T05:17:51;5.50;;;1.15;;
23714;SDS011;12036;50.858;4.472;2023-09-18T05:20:21;4.32;;;1.30;;
23714;SDS011;12036;50.858;4.472;2023-09-18T05:22:49;3.80;;;1.50;;
23714;SDS011;12036;50.858;4.472;2023-09-18T05:25:18;1.25;;;1.10;;
23714;SDS011;12036;50.858;4.472;2023-09-18T05:27:44;2.92;;;1.55;;
23714;SDS011;12036;50.858;4.472;2023-09-18T05:30:17;3.15;;;1.17;;
23714;SDS011;12036;50.858;4.472;2023-09-18T05:32:46;2.17;;;1.33;;
23714;SDS011;12036;50.858;4.472;2023-09-18T05:35:13;2.83;;;1.48;;
23714;SDS011;12036;50.858;4.472;2023-09-18T05:37:39;3.55;;;1.35;;
23714;SDS011;12036;50.858;4.472;2023-09-18T05:40:06;3.72;;;1.05;;
23714;SDS011;12036;50.858;4.472;2023-09-18T05:42:34;3.45;;;1.15;;
23714;SDS011;12036;50.858;4.472;2023-09-18T05:45:04;7.93;;;1.35;;
23714;SDS011;12036;50.858;4.472;2023-09-18T05:47:33;2.35;;;1.35;;
23714;SDS011;12036;50.858;4.472;2023-09-18T05:50:01;3.97;;;1.23;;
23714;SDS011;12036;50.858;4.472;2023-09-18T05:52:40;3.60;;;1.20;;
23714;SDS011;12036;50.858;4.472;2023-09-18T05:55:07;4.05;;;1.52;;
23714;SDS011;12036;50.858;4.472;2023-09-18T05:57:33;2.47;;;1.33;;
23714;SDS011;12036;50.858;4.472;2023-09-18T05:59:59;2.85;;;1.17;;
23714;SDS011;12036;50.858;4.472;2023-09-18T06:02:25;3.83;;;1.40;;
23714;SDS011;12036;50.858;4.472;2023-09-18T06:04:58;2.75;;;1.40;;
23714;SDS011;12036;50.858;4.472;2023-09-18T06:07:27;3.13;;;1.38;;
23714;SDS011;12036;50.858;4.472;2023-09-18T06:09:54;6.50;;;1.50;;
23714;SDS011;12036;50.858;4.472;2023-09-18T06:12:19;4.63;;;1.40;;
23714;SDS011;12036;50.858;4.472;2023-09-18T06:14:46;8.68;;;2.10;;
23714;SDS011;12036;50.858;4.472;2023-09-18T06:17:13;3.78;;;1.65;;
23714;SDS011;12036;50.858;4.472;2023-09-18T06:19:42;4.10;;;1.60;;
23714;SDS011;12036;50.858;4.472;2023-09-18T06:22:08;3.72;;;1.90;;
23714;SDS011;12036;50.858;4.472;2023-09-18T06:24:34;2.30;;;1.40;;
23714;SDS011;12036;50.858;4.472;2023-09-18T06:27:01;3.10;;;1.25;;
23714;SDS011;12036;50.858;4.472;2023-09-18T06:29:27;4.53;;;1.50;;
23714;SDS011;12036;50.858;4.472;2023-09-18T06:31:52;3.58;;;1.30;;
23714;SDS011;12036;50.858;4.472;2023-09-18T06:34:18;2.30;;;1.33;;
23714;SDS011;12036;50.858;4.472;2023-09-18T06:36:44;3.20;;;1.25;;
23714;SDS011;12036;50.858;4.472;2023-09-18T06:39:09;9.93;;;1.77;;
23714;SDS011;12036;50.858;4.472;2023-09-18T06:41:35;5.57;;;1.58;;
23714;SDS011;12036;50.858;4.472;2023-09-18T06:44:01;4.18;;;1.48;;
23714;SDS011;12036;50.858;4.472;2023-09-18T06:46:28;3.20;;;1.20;;
23714;SDS011;12036;50.858;4.472;2023-09-18T06:48:55;3.92;;;1.52;;
23714;SDS011;12036;50.858;4.472;2023-09-18T06:51:21;4.07;;;1.58;;
23714;SDS011;12036;50.858;4.472;2023-09-18T06:53:47;4.40;;;1.58;;
23714;SDS011;12036;50.858;4.472;2023-09-18T06:56:13;5.28;;;1.70;;
23714;SDS011;12036;50.858;4.472;2023-09-18T06:58:38;2.20;;;1.52;;
23714;SDS011;12036;50.858;4.472;2023-09-18T07:01:04;5.38;;;1.85;;
23714;SDS011;12036;50.858;4.472;2023-09-18T07:03:32;3.20;;;1.88;;
23714;SDS011;12036;50.858;4.472;2023-09-18T07:06:00;11.02;;;2.08;;
23714;SDS011;12036;50.858;4.472;2023-09-18T07:08:26;6.45;;;1.83;;
23714;SDS011;12036;50.858;4.472;2023-09-18T07:10:51;5.03;;;1.92;;
23714;SDS011;12036;50.858;4.472;2023-09-18T07:13:17;3.83;;;1.80;;
23714;SDS011;12036;50.858;4.472;2023-09-18T07:15:43;3.67;;;1.90;;
23714;SDS011;12036;50.858;4.472;2023-09-18T07:18:09;5.63;;;2.10;;
23714;SDS011;12036;50.858;4.472;2023-09-18T07:20:39;5.32;;;2.05;;
23714;SDS011;12036;50.858;4.472;2023-09-18T07:23:11;7.55;;;1.92;;
23714;SDS011;12036;50.858;4.472;2023-09-18T07:25:36;2.42;;;1.88;;
23714;SDS011;12036;50.858;4.472;2023-09-18T07:28:05;2.95;;;2.00;;
23714;SDS011;12036;50.858;4.472;2023-09-18T07:30:31;4.32;;;1.88;;
23714;SDS011;12036;50.858;4.472;2023-09-18T07:32:58;5.63;;;1.85;;
23714;SDS011;12036;50.858;4.472;2023-09-18T07:35:25;6.68;;;2.08;;
23714;SDS011;12036;50.858;4.472;2023-09-18T07:37:51;6.55;;;1.92;;
23714;SDS011;12036;50.858;4.472;2023-09-18T07:40:17;3.33;;;1.63;;
23714;SDS011;12036;50.858;4.472;2023-09-18T07:42:42;4.65;;;1.67;;
23714;SDS011;12036;50.858;4.472;2023-09-18T07:45:11;3.10;;;1.50;;
23714;SDS011;12036;50.858;4.472;2023-09-18T07:47:37;4.78;;;1.58;;
23714;SDS011;12036;50.858;4.472;2023-09-18T07:50:03;3.47;;;1.40;;
23714;SDS011;12036;50.858;4.472;2023-09-18T07:52:29;3.58;;;1.63;;
23714;SDS011;12036;50.858;4.472;2023-09-18T07:54:56;4.72;;;1.75;;
23714;SDS011;12036;50.858;4.472;2023-09-18T07:57:23;9.18;;;1.80;;
23714;SDS011;12036;50.858;4.472;2023-09-18T07:59:49;3.33;;;1.63;;
23714;SDS011;12036;50.858;4.472;2023-09-18T08:02:15;3.72;;;1.88;;
23714;SDS011;12036;50.858;4.472;2023-09-18T08:04:42;4.75;;;1.70;;
23714;SDS011;12036;50.858;4.472;2023-09-18T08:07:08;7.47;;;1.90;;
23714;SDS011;12036;50.858;4.472;2023-09-18T08:09:34;3.75;;;1.80;;
23714;SDS011;12036;50.858;4.472;2023-09-18T08:12:02;5.60;;;1.98;;
23714;SDS011;12036;50.858;4.472;2023-09-18T08:14:28;4.80;;;1.65;;
23714;SDS011;12036;50.858;4.472;2023-09-18T08:16:57;4.28;;;1.98;;
23714;SDS011;12036;50.858;4.472;2023-09-18T08:19:24;6.22;;;2.00;;
23714;SDS011;12036;50.858;4.472;2023-09-18T08:21:51;4.05;;;2.00;;
23714;SDS011;12036;50.858;4.472;2023-09-18T08:24:21;2.38;;;1.75;;
23714;SDS011;12036;50.858;4.472;2023-09-18T08:26:47;3.33;;;1.75;;
23714;SDS011;12036;50.858;4.472;2023-09-18T08:29:13;5.13;;;1.70;;
23714;SDS011;12036;50.858;4.472;2023-09-18T08:31:39;5.97;;;2.22;;
23714;SDS011;12036;50.858;4.472;2023-09-18T08:34:05;3.65;;;1.92;;
23714;SDS011;12036;50.858;4.472;2023-09-18T08:36:30;5.85;;;2.20;;
23714;SDS011;12036;50.858;4.472;2023-09-18T08:38:57;3.67;;;2.08;;
23714;SDS011;12036;50.858;4.472;2023-09-18T08:41:23;3.92;;;1.80;;
23714;SDS011;12036;50.858;4.472;2023-09-18T08:43:52;3.90;;;1.98;;
23714;SDS011;12036;50.858;4.472;2023-09-18T08:46:25;5.13;;;2.15;;
23714;SDS011;12036;50.858;4.472;2023-09-18T08:48:51;6.20;;;2.35;;
23714;SDS011;12036;50.858;4.472;2023-09-18T08:51:18;4.07;;;2.05;;
23714;SDS011;12036;50.858;4.472;2023-09-18T08:53:44;4.70;;;2.60;;
23714;SDS011;12036;50.858;4.472;2023-09-18T08:56:12;8.30;;;2.90;;
23714;SDS011;12036;50.858;4.472;2023-09-18T08:58:38;8.02;;;2.50;;
23714;SDS011;12036;50.858;4.472;2023-09-18T09:01:08;5.50;;;2.47;;
23714;SDS011;12036;50.858;4.472;2023-09-18T09:03:38;8.05;;;2.70;;
23714;SDS011;12036;50.858;4.472;2023-09-18T09:06:08;8.23;;;2.50;;
23714;SDS011;12036;50.858;4.472;2023-09-18T09:08:35;6.22;;;2.70;;
23714;SDS011;12036;50.858;4.472;2023-09-18T09:11:01;4.43;;;2.70;;
23714;SDS011;12036;50.858;4.472;2023-09-18T09:13:28;7.60;;;2.85;;
23714;SDS011;12036;50.858;4.472;2023-09-18T09:15:54;6.05;;;3.22;;
23714;SDS011;12036;50.858;4.472;2023-09-18T09:18:25;6.65;;;3.15;;
23714;SDS011;12036;50.858;4.472;2023-09-18T09:20:56;7.80;;;3.08;;
23714;SDS011;12036;50.858;4.472;2023-09-18T09:23:25;4.45;;;2.90;;
23714;SDS011;12036;50.858;4.472;2023-09-18T09:25:51;6.72;;;3.30;;
23714;SDS011;12036;50.858;4.472;2023-09-18T09:28:28;7.05;;;4.10;;
23714;SDS011;12036;50.858;4.472;2023-09-18T09:31:04;9.60;;;2.72;;
23714;SDS011;12036;50.858;4.472;2023-09-18T09:33:30;10.43;;;2.72;;
23714;SDS011;12036;50.858;4.472;2023-09-18T09:35:56;5.88;;;3.13;;
23714;SDS011;12036;50.858;4.472;2023-09-18T09:38:29;8.25;;;3.60;;
23714;SDS011;12036;50.858;4.472;2023-09-18T09:40:59;10.10;;;3.90;;
23714;SDS011;12036;50.858;4.472;2023-09-18T09:43:32;8.02;;;3.58;;
23714;SDS011;12036;50.858;4.472;2023-09-18T09:46:01;6.03;;;3.08;;
23714;SDS011;12036;50.858;4.472;2023-09-18T09:48:27;6.50;;;3.22;;
23714;SDS011;12036;50.858;4.472;2023-09-18T09:50:59;7.63;;;2.97;;
23714;SDS011;12036;50.858;4.472;2023-09-18T09:53:44;13.13;;;3.13;;
23714;SDS011;12036;50.858;4.472;2023-09-18T09:56:12;12.70;;;3.17;;
23714;SDS011;12036;50.858;4.472;2023-09-18T09:58:39;7.57;;;2.85;;
23714;SDS011;12036;50.858;4.472;2023-09-18T10:01:09;5.18;;;2.85;;
23714;SDS011;12036;50.858;4.472;2023-09-18T10:03:43;7.10;;;2.97;;
23714;SDS011;12036;50.858;4.472;2023-09-18T10:06:10;6.75;;;2.95;;
23714;SDS011;12036;50.858;4.472;2023-09-18T10:08:39;6.50;;;2.40;;
23714;SDS011;12036;50.858;4.472;2023-09-18T10:11:06;5.25;;;2.90;;
23714;SDS011;12036;50.858;4.472;2023-09-18T10:13:43;5.28;;;2.65;;
23714;SDS011;12036;50.858;4.472;2023-09-18T10:16:12;4.70;;;2.65;;
23714;SDS011;12036;50.858;4.472;2023-09-18T10:26:41;6.97;;;2.60;;
23714;SDS011;12036;50.858;4.472;2023-09-18T10:29:29;4.95;;;2.53;;
23714;SDS011;12036;50.858;4.472;2023-09-18T10:31:56;5.15;;;2.97;;
23714;SDS011;12036;50.858;4.472;2023-09-18T10:34:22;7.90;;;2.80;;
23714;SDS011;12036;50.858;4.472;2023-09-18T10:36:52;7.18;;;2.72;;
23714;SDS011;12036;50.858;4.472;2023-09-18T10:39:19;6.23;;;2.60;;
23714;SDS011;12036;50.858;4.472;2023-09-18T10:41:51;6.15;;;2.53;;
23714;SDS011;12036;50.858;4.472;2023-09-18T10:44:17;3.47;;;2.50;;
23714;SDS011;12036;50.858;4.472;2023-09-18T10:46:47;6.93;;;2.65;;
23714;SDS011;12036;50.858;4.472;2023-09-18T10:49:14;4.50;;;2.40;;
23714;SDS011;12036;50.858;4.472;2023-09-18T10:51:41;7.05;;;2.53;;
23714;SDS011;12036;50.858;4.472;2023-09-18T10:54:10;5.18;;;2.40;;
23714;SDS011;12036;50.858;4.472;2023-09-18T10:56:40;7.82;;;2.30;;
23714;SDS011;12036;50.858;4.472;2023-09-18T10:59:09;2.85;;;2.15;;
23714;SDS011;12036;50.858;4.472;2023-09-18T11:01:35;4.78;;;1.80;;
23714;SDS011;12036;50.858;4.472;2023-09-18T11:04:02;2.20;;;1.70;;
23714;SDS011;12036;50.858;4.472;2023-09-18T11:07:00;5.85;;;2.10;;
23714;SDS011;12036;50.858;4.472;2023-09-18T11:11:53;5.85;;;1.65;;
23714;SDS011;12036;50.858;4.472;2023-09-18T11:14:23;6.00;;;1.80;;
23714;SDS011;12036;50.858;4.472;2023-09-18T11:17:06;1.75;;;1.38;;
23714;SDS011;12036;50.858;4.472;2023-09-18T11:20:05;4.05;;;1.60;;
23714;SDS011;12036;50.858;4.472;2023-09-18T11:23:17;2.05;;;1.38;;
23714;SDS011;12036;50.858;4.472;2023-09-18T11:25:38;4.60;;;1.90;;
23714;SDS011;12036;50.858;4.472;2023-09-18T11:28:08;5.93;;;2.13;;
23714;SDS011;12036;50.858;4.472;2023-09-18T11:30:49;4.70;;;1.55;;
23714;SDS011;12036;50.858;4.472;2023-09-18T11:33:15;4.57;;;1.80;;
23714;SDS011;12036;50.858;4.472;2023-09-18T11:36:08;5.35;;;1.70;;
23714;SDS011;12036;50.858;4.472;2023-09-18T11:38:53;4.05;;;1.75;;
23714;SDS011;12036;50.858;4.472;2023-09-18T11:41:24;5.20;;;1.48;;
23714;SDS011;12036;50.858;4.472;2023-09-18T11:46:39;3.40;;;1.70;;
23714;SDS011;12036;50.858;4.472;2023-09-18T11:49:09;3.35;;;1.90;;
23714;SDS011;12036;50.858;4.472;2023-09-18T11:51:37;6.45;;;2.30;;
23714;SDS011;12036;50.858;4.472;2023-09-18T11:54:03;5.38;;;2.10;;
23714;SDS011;12036;50.858;4.472;2023-09-18T11:56:32;3.20;;;1.55;;
23714;SDS011;12036;50.858;4.472;2023-09-18T11:58:58;3.08;;;2.10;;
23714;SDS011;12036;50.858;4.472;2023-09-18T12:01:25;3.47;;;2.03;;
23714;SDS011;12036;50.858;4.472;2023-09-18T12:03:55;6.13;;;2.13;;
23714;SDS011;12036;50.858;4.472;2023-09-18T12:06:25;2.60;;;1.92;;
23714;SDS011;12036;50.858;4.472;2023-09-18T12:08:54;3.50;;;1.70;;
23714;SDS011;12036;50.858;4.472;2023-09-18T12:11:21;5.17;;;1.73;;
23714;SDS011;12036;50.858;4.472;2023-09-18T12:13:50;4.10;;;1.60;;
23714;SDS011;12036;50.858;4.472;2023-09-18T12:16:16;2.10;;;1.50;;
23714;SDS011;12036;50.858;4.472;2023-09-18T12:18:48;2.60;;;1.40;;
23714;SDS011;12036;50.858;4.472;2023-09-18T12:21:14;7.63;;;1.70;;
23714;SDS011;12036;50.858;4.472;2023-09-18T12:23:42;7.10;;;1.55;;
23714;SDS011;12036;50.858;4.472;2023-09-18T12:26:13;3.10;;;1.85;;
23714;SDS011;12036;50.858;4.472;2023-09-18T12:28:43;4.68;;;1.75;;
23714;SDS011;12036;50.858;4.472;2023-09-18T12:31:15;3.05;;;1.52;;
23714;SDS011;12036;50.858;4.472;2023-09-18T12:33:42;4.45;;;1.35;;
23714;SDS011;12036;50.858;4.472;2023-09-18T12:36:09;2.80;;;1.50;;
23714;SDS011;12036;50.858;4.472;2023-09-18T12:38:36;4.50;;;1.50;;
23714;SDS011;12036;50.858;4.472;2023-09-18T12:41:02;4.28;;;1.50;;
23714;SDS011;12036;50.858;4.472;2023-09-18T12:43:33;2.55;;;1.40;;
23714;SDS011;12036;50.858;4.472;2023-09-18T12:48:32;2.65;;;1.42;;
23714;SDS011;12036;50.858;4.472;2023-09-18T12:51:04;1.92;;;1.40;;
23714;SDS011;12036;50.858;4.472;2023-09-18T12:53:31;4.45;;;1.55;;
23714;SDS011;12036;50.858;4.472;2023-09-18T12:56:10;5.03;;;1.70;;
23714;SDS011;12036;50.858;4.472;2023-09-18T12:58:39;3.10;;;1.52;;
23714;SDS011;12036;50.858;4.472;2023-09-18T13:01:06;4.95;;;1.38;;
23714;SDS011;12036;50.858;4.472;2023-09-18T13:03:34;3.08;;;1.40;;
23714;SDS011;12036;50.858;4.472;2023-09-18T13:06:10;2.95;;;1.50;;
23714;SDS011;12036;50.858;4.472;2023-09-18T13:08:37;1.60;;;1.30;;
23714;SDS011;12036;50.858;4.472;2023-09-18T13:11:03;3.28;;;1.50;;
23714;SDS011;12036;50.858;4.472;2023-09-18T13:13:29;2.35;;;1.35;;
23714;SDS011;12036;50.858;4.472;2023-09-18T13:15:58;3.42;;;1.45;;
23714;SDS011;12036;50.858;4.472;2023-09-18T13:18:26;7.47;;;1.30;;
23714;SDS011;12036;50.858;4.472;2023-09-18T13:20:52;2.45;;;1.25;;
23714;SDS011;12036;50.858;4.472;2023-09-18T13:23:18;3.63;;;1.40;;
23714;SDS011;12036;50.858;4.472;2023-09-18T13:25:44;5.32;;;1.60;;
23714;SDS011;12036;50.858;4.472;2023-09-18T13:28:12;1.63;;;1.42;;
23714;SDS011;12036;50.858;4.472;2023-09-18T13:30:39;4.82;;;1.65;;
23714;SDS011;12036;50.858;4.472;2023-09-18T13:33:10;5.53;;;1.65;;
23714;SDS011;12036;50.858;4.472;2023-09-18T13:35:38;4.57;;;1.42;;
23714;SDS011;12036;50.858;4.472;2023-09-18T13:38:05;4.22;;;1.75;;
23714;SDS011;12036;50.858;4.472;2023-09-18T13:40:33;2.65;;;1.45;;
23714;SDS011;12036;50.858;4.472;2023-09-18T13:43:01;3.92;;;1.27;;
23714;SDS011;12036;50.858;4.472;2023-09-18T13:45:28;2.55;;;1.52;;
23714;SDS011;12036;50.858;4.472;2023-09-18T13:47:55;2.95;;;1.52;;
23714;SDS011;12036;50.858;4.472;2023-09-18T13:50:20;2.10;;;1.42;;
23714;SDS011;12036;50.858;4.472;2023-09-18T13:52:46;5.22;;;1.25;;
23714;SDS011;12036;50.858;4.472;2023-09-18T13:55:12;1.95;;;1.20;;
23714;SDS011;12036;50.858;4.472;2023-09-18T13:57:38;4.80;;;1.52;;
23714;SDS011;12036;50.858;4.472;2023-09-18T14:00:05;2.70;;;1.27;;
23714;SDS011;12036;50.858;4.472;2023-09-18T14:02:33;8.02;;;1.67;;
23714;SDS011;12036;50.858;4.472;2023-09-18T14:04:59;4.32;;;1.20;;
23714;SDS011;12036;50.858;4.472;2023-09-18T14:07:24;3.40;;;1.33;;
23714;SDS011;12036;50.858;4.472;2023-09-18T14:09:50;3.30;;;1.20;;
23714;SDS011;12036;50.858;4.472;2023-09-18T14:12:16;2.97;;;1.35;;
23714;SDS011;12036;50.858;4.472;2023-09-18T14:14:42;4.93;;;1.83;;
23714;SDS011;12036;50.858;4.472;2023-09-18T14:17:09;2.40;;;1.30;;
23714;SDS011;12036;50.858;4.472;2023-09-18T14:19:35;1.73;;;1.50;;
23714;SDS011;12036;50.858;4.472;2023-09-18T14:22:03;2.80;;;1.35;;
23714;SDS011;12036;50.858;4.472;2023-09-18T14:24:30;1.40;;;1.30;;
23714;SDS011;12036;50.858;4.472;2023-09-18T14:26:56;2.13;;;1.55;;
23714;SDS011;12036;50.858;4.472;2023-09-18T14:29:22;4.15;;;1.50;;
23714;SDS011;12036;50.858;4.472;2023-09-18T14:31:48;3.28;;;1.45;;
23714;SDS011;12036;50.858;4.472;2023-09-18T14:34:13;3.22;;;1.48;;
23714;SDS011;12036;50.858;4.472;2023-09-18T14:36:39;3.85;;;1.77;;
23714;SDS011;12036;50.858;4.472;2023-09-18T14:39:05;2.05;;;1.27;;
23714;SDS011;12036;50.858;4.472;2023-09-18T14:41:33;3.20;;;1.38;;
23714;SDS011;12036;50.858;4.472;2023-09-18T14:44:00;9.48;;;1.58;;
23714;SDS011;12036;50.858;4.472;2023-09-18T14:46:25;4.85;;;1.75;;
23714;SDS011;12036;50.858;4.472;2023-09-18T14:48:51;9.63;;;2.35;;
23714;SDS011;12036;50.858;4.472;2023-09-18T14:51:17;6.50;;;1.83;;
23714;SDS011;12036;50.858;4.472;2023-09-18T14:53:43;4.63;;;2.17;;
23714;SDS011;12036;50.858;4.472;2023-09-18T14:56:09;5.22;;;1.80;;
23714;SDS011;12036;50.858;4.472;2023-09-18T14:58:34;5.93;;;2.38;;
23714;SDS011;12036;50.858;4.472;2023-09-18T15:01:00;5.72;;;1.67;;
23714;SDS011;12036;50.858;4.472;2023-09-18T15:03:25;6.47;;;2.17;;
23714;SDS011;12036;50.858;4.472;2023-09-18T15:05:51;7.35;;;1.73;;